KALO

Waterloo Regional Airport

Waterloo, Iowa, USA
KALO 251732Z 2518/2618 35013KT 5SM -SHRA BR SCT006 BKN015 TEMPO 2518/2520 1SM TSRA BR BKN006CB FM252100 33011KT P6SM VCSH BKN015 FM260000 32008KT P6SM BKN040 FM260500 27006KT P6SM FEW200 FM261300 30015G22KT P6SM SKC
Issued Valid From Valid To
Sep-25 @ 17:32 UTC
(14 minutes ago)
Sep-25 @ 18:00 UTC
(in 14 minutes)
Sep-26 @ 18:00 UTC
(in 24 hours)
Sep-25 @ 18:00 to Sep-25 @ 21:00
KALO 251732Z 2518/2618 35013KT 5SM -SHRA BR SCT006 BKN015
Wind Visibility Clouds Conditions
350° at 13 knots 5 miles
  • Scattered at 600' AGL
  • Broken at 1,500' AGL
  • Light Rain
  • Mist
Temporary Sep-25 @ 18:00 to Sep-25 @ 20:00
TEMPO 2518/2520 1SM TSRA BR BKN006CB
Visibility Clouds Conditions
1 miles
  • Broken at 600' AGL
  • Thunderstorm
  • Rain
  • Mist
From Sep-25 @ 21:00 to Sep-26 @ 00:00
FM252100 33011KT P6SM VCSH BKN015
Wind Visibility Clouds
330° at 11 knots Greater than 6 miles
  • Broken at 1,500' AGL
From Sep-26 @ 00:00 to Sep-26 @ 05:00
FM260000 32008KT P6SM BKN040
Wind Visibility Clouds
320° at 8 knots Greater than 6 miles
  • Broken at 4,000' AGL
From Sep-26 @ 05:00 to Sep-26 @ 13:00
FM260500 27006KT P6SM FEW200
Wind Visibility Clouds
270° at 6 knots Greater than 6 miles
  • Few at 20,000' AGL
From Sep-26 @ 13:00 to Sep-26 @ 18:00
FM261300 30015G22KT P6SM SKC
Wind Visibility Clouds
300° at 15 knots
 Gusting to 22 knots
Greater than 6 miles
  • Clear skies
KALO 251732Z 2518/2618 35013KT 5SM -SHRA BR SCT006 BKN015 TEMPO 2518/2520 1SM TSRA BR BKN006CB FM252100 33011KT P6SM VCSH BKN015 FM260000 32008KT P6SM BKN040 FM260500 27006KT P6SM FEW200 FM261300 30015G22KT P6SM SKC
Issued Sep-25 @ 17:32 UTC
(14 minutes ago)
Valid From Sep-25 @ 18:00 UTC
(in 14 minutes)
Valid To Sep-26 @ 18:00 UTC
(in 24 hours)
Sep-25 @ 18:00 - Sep-25 @ 21:00
Wind Visibility
350° at 13 knots 5 miles
Clouds
  • Scattered at 600' AGL
  • Broken at 1,500' AGL
Conditions
  • Light Rain
  • Mist
Temporary Sep-25 @ 18:00 - Sep-25 @ 20:00
Clouds
  • Broken at 600' AGL
Conditions
  • Thunderstorm
  • Rain
  • Mist
From Sep-25 @ 21:00 - Sep-26 @ 00:00
Wind Visibility
330° at 11 knots Greater than 6 miles
Clouds
  • Broken at 1,500' AGL
From Sep-26 @ 00:00 - Sep-26 @ 05:00
Wind Visibility
320° at 8 knots Greater than 6 miles
Clouds
  • Broken at 4,000' AGL
From Sep-26 @ 05:00 - Sep-26 @ 13:00
Wind Visibility
270° at 6 knots Greater than 6 miles
Clouds
  • Few at 20,000' AGL
From Sep-26 @ 13:00 - Sep-26 @ 18:00
Wind Visibility
300° at 15 knots
 Gusting to 22 knots
Greater than 6 miles
Clouds
  • Clear skies